עמוד ראשי
METAR-TAF:

METAR-TAF

שדות תעופה :

Teller, אלסקה, ארצות הברית

קו רוחב: 65-14-25N, קו אורך: 166-20-22W, גובה: 90מטר

תצפית מזג אוויר נוכחית

הדו"ח נערך לפני 19דקות, בשעה 09:56 UTC
רוח 9קשר מכיוון מערב/דרום-מערב
טמפרטורת 3 צלסיוס
לחות 93%
לחץ 1026 hPa
ראות: 16.1קילומטר
מעונן בגובה 800רגל

METAR: PATE 150956Z AUTO 24009KT 10SM OVC008 03/02 A3031 RMK AO2 SLP267 T00330017 TSNO

זמן: 02:15 (10:15 UTC)


TAF: חסר

תצפיות ותחזיות מזג אוויר לגבי יותר מ- 4,000 שדות תעופה ברחבי העולם. דוחות METAR ו- TAF.

התחנות הזמינות מסומנות בנקודות צהובות ואדומות על גבי המפה.

העבר את העכבר לנקודה הצבעונית על מנת לראות את שם התחנה.

לאחר מכן, לחץ כדי לראות את תוכן ואת תחזיות מזג האוויר.

כדי לשנות את המפה: לחץ על הכפתורים הירוקים עם הפלוס השחור כדי להתקרב; על הכפתור הירוק עם המקף כדי להתרחק; או בחיצים הירוקים למפות סמוכות.


METAR-TAF: